TimePST,TemperatureF,Dew PointF,Humidity,Sea Level PressureIn,VisibilityMPH,Wind Direction,Wind SpeedMPH,Gust SpeedMPH,PrecipitationIn,Events,Conditions,WindDirDegrees,DateUTC
12:13 AM,48.2,46.4,93,29.87,2.5,SW,8.1,-,0.05,Rain,Heavy Rain,220,2012-12-26 08:13:00
12:23 AM,48.2,46.4,93,29.87,8.0,WSW,6.9,-,0.05,Rain,Light Rain,240,2012-12-26 08:23:00
12:53 AM,48.0,45.0,89,29.87,10.0,SSW,4.6,-,0.05,,Mostly Cloudy,200,2012-12-26 08:53:00
1:13 AM,48.2,44.6,87,29.87,10.0,South,6.9,-,N/A,,Mostly Cloudy,190,2012-12-26 09:13:00
1:40 AM,48.2,44.6,87,29.88,10.0,WSW,9.2,-,N/A,,Mostly Cloudy,250,2012-12-26 09:40:00
1:53 AM,48.0,45.0,89,29.88,10.0,WSW,5.8,-,N/A,,Overcast,240,2012-12-26 09:53:00
2:27 AM,48.2,44.6,87,29.89,10.0,SW,6.9,-,0.01,Rain,Light Rain,230,2012-12-26 10:27:00
2:53 AM,46.9,45.0,93,29.89,10.0,SW,4.6,-,0.01,,Mostly Cloudy,220,2012-12-26 10:53:00
3:53 AM,46.9,43.0,86,29.89,10.0,Calm,Calm,-,0.00,,Partly Cloudy,0,2012-12-26 11:53:00
4:53 AM,45.0,42.1,90,29.90,10.0,WSW,4.6,-,0.01,,Scattered Clouds,240,2012-12-26 12:53:00
5:53 AM,46.0,43.0,89,29.91,10.0,Calm,Calm,-,0.00,Rain,Light Rain,0,2012-12-26 13:53:00
6:53 AM,46.0,43.0,89,29.93,10.0,Calm,Calm,-,0.00,,Overcast,0,2012-12-26 14:53:00
7:20 AM,46.4,44.6,93,29.94,10.0,Calm,Calm,-,N/A,,Overcast,0,2012-12-26 15:20:00
7:53 AM,46.9,43.0,86,29.95,10.0,WSW,4.6,-,0.01,,Unknown,240,2012-12-26 15:53:00
8:01 AM,46.4,42.8,87,29.95,10.0,SSW,3.5,-,N/A,,Mostly Cloudy,200,2012-12-26 16:01:00
8:53 AM,48.0,44.1,86,29.96,10.0,SW,9.2,-,0.00,,Mostly Cloudy,230,2012-12-26 16:53:00
9:00 AM,48.2,44.6,87,29.96,10.0,SW,8.1,-,N/A,,Mostly Cloudy,220,2012-12-26 17:00:00
9:53 AM,48.9,44.1,83,29.99,10.0,WSW,8.1,-,0.01,,Mostly Cloudy,240,2012-12-26 17:53:00
10:53 AM,51.1,45.0,80,29.99,10.0,West,12.7,-,0.00,,Scattered Clouds,270,2012-12-26 18:53:00
11:53 AM,53.1,45.0,74,29.97,10.0,WSW,15.0,-,N/A,,Mostly Cloudy,250,2012-12-26 19:53:00
12:53 PM,54.0,45.0,72,29.96,10.0,WSW,13.8,-,N/A,,Mostly Cloudy,250,2012-12-26 20:53:00
1:53 PM,53.1,44.1,71,29.96,10.0,WSW,17.3,-,N/A,,Mostly Cloudy,250,2012-12-26 21:53:00
2:53 PM,51.1,41.0,68,29.97,10.0,West,17.3,-,N/A,,Mostly Cloudy,270,2012-12-26 22:53:00
3:53 PM,51.1,43.0,74,29.99,10.0,WSW,11.5,-,N/A,,Mostly Cloudy,250,2012-12-26 23:53:00
4:53 PM,50.0,43.0,77,30.01,10.0,West,6.9,-,N/A,,Mostly Cloudy,260,2012-12-27 00:53:00
5:35 PM,48.2,42.8,82,30.02,10.0,SW,3.5,-,N/A,,Scattered Clouds,220,2012-12-27 01:35:00
5:53 PM,48.0,42.1,80,30.02,10.0,WSW,5.8,-,N/A,,Scattered Clouds,250,2012-12-27 01:53:00
6:53 PM,46.9,42.1,83,30.03,10.0,West,8.1,-,N/A,,Partly Cloudy,260,2012-12-27 02:53:00
7:53 PM,45.0,42.1,90,30.04,10.0,SW,4.6,-,N/A,,Clear,230,2012-12-27 03:53:00
8:53 PM,45.0,42.1,90,30.05,10.0,West,5.8,-,N/A,,Clear,260,2012-12-27 04:53:00
9:53 PM,45.0,41.0,86,30.07,10.0,Calm,Calm,-,N/A,,Clear,0,2012-12-27 05:53:00
10:53 PM,43.0,41.0,93,30.09,10.0,Calm,Calm,-,N/A,,Clear,0,2012-12-27 06:53:00
11:53 PM,43.0,39.9,89,30.09,10.0,Calm,Calm,-,N/A,,Clear,0,2012-12-27 07:53:00